createdAt,value
2022-09-16T00:01:40.413Z,98039.41
2022-09-16T00:04:08.797Z,98039.77
2022-09-16T00:06:37.169Z,98039.30
2022-09-16T00:09:05.789Z,98040.84
2022-09-16T00:11:34.727Z,98043.73
2022-09-16T00:14:04.206Z,98046.45
2022-09-16T00:16:32.890Z,98050.35
2022-09-16T00:19:02.163Z,98047.09
2022-09-16T00:21:31.356Z,98049.59
2022-09-16T00:23:59.859Z,98051.80
2022-09-16T00:26:28.277Z,98059.42
2022-09-16T00:28:56.778Z,98060.56
2022-09-16T00:31:24.987Z,98065.69
2022-09-16T00:33:53.204Z,98066.37
2022-09-16T00:36:21.554Z,98074.35
2022-09-16T00:38:55.227Z,98069.52
2022-09-16T00:41:33.439Z,98069.15
2022-09-16T00:44:39.573Z,98067.60
2022-09-16T00:47:07.961Z,98069.95
2022-09-16T00:49:36.301Z,98072.27
2022-09-16T00:52:07.345Z,98070.29
2022-09-16T00:54:38.589Z,98077.50
2022-09-16T00:57:11.152Z,98071.91
2022-09-16T00:59:43.826Z,98067.95
2022-09-16T01:02:17.523Z,98072.30
2022-09-16T01:04:45.762Z,98073.85
2022-09-16T01:07:15.318Z,98076.70
2022-09-16T01:09:43.592Z,98077.92
2022-09-16T01:12:12.013Z,98079.50
2022-09-16T01:14:55.488Z,98083.17
2022-09-16T01:18:01.534Z,98082.66
2022-09-16T01:20:59.708Z,98084.04
2022-09-16T01:23:56.079Z,98086.05
2022-09-16T01:26:33.140Z,98089.31
2022-09-16T01:29:20.282Z,98090.45
2022-09-16T01:31:58.352Z,98092.04
2022-09-16T01:34:50.736Z,98093.38
2022-09-16T01:37:35.106Z,98095.31
2022-09-16T01:40:38.859Z,98098.16
2022-09-16T01:43:29.378Z,98100.34
2022-09-16T01:46:10.100Z,98094.72
2022-09-16T01:48:52.990Z,98093.74
2022-09-16T01:51:32.087Z,98094.91
2022-09-16T01:54:33.035Z,98094.65
2022-09-16T01:57:09.626Z,98096.89
2022-09-16T01:59:48.917Z,98099.96
2022-09-16T02:02:27.484Z,98101.63
2022-09-16T02:04:58.825Z,98103.27
2022-09-16T02:07:34.678Z,98100.32
2022-09-16T02:10:38.167Z,98100.54
2022-09-16T02:13:15.264Z,98096.71
2022-09-16T02:15:49.119Z,98096.29
2022-09-16T02:18:24.757Z,98097.77
2022-09-16T02:20:56.992Z,98096.69
2022-09-16T02:23:33.627Z,98105.63
2022-09-16T02:26:05.569Z,98106.67
2022-09-16T02:28:39.112Z,98105.05
2022-09-16T02:31:10.003Z,98107.19
2022-09-16T02:33:47.328Z,98106.15
2022-09-16T02:36:21.166Z,98109.50
2022-09-16T02:38:59.527Z,98106.85
2022-09-16T02:41:27.973Z,98111.50
2022-09-16T02:43:56.438Z,98109.27
2022-09-16T02:46:33.036Z,98112.66
2022-09-16T02:49:30.010Z,98118.56
2022-09-16T02:52:45.130Z,98119.04
2022-09-16T02:55:25.406Z,98115.79
2022-09-16T02:57:53.733Z,98121.07
2022-09-16T03:00:22.934Z,98115.98
2022-09-16T03:02:53.287Z,98123.11
2022-09-16T03:05:30.311Z,98120.67
2022-09-16T03:08:00.547Z,98115.21
2022-09-16T03:10:38.486Z,98103.59
2022-09-16T03:13:23.026Z,98102.91
2022-09-16T03:16:03.476Z,98107.78
2022-09-16T03:19:03.406Z,98104.66
2022-09-16T03:21:55.628Z,98095.17
2022-09-16T03:24:57.809Z,98093.59
2022-09-16T03:27:34.571Z,98099.02
2022-09-16T03:30:07.951Z,98099.23
2022-09-16T03:33:08.616Z,98100.91
2022-09-16T03:35:50.031Z,98105.52
2022-09-16T03:38:19.970Z,98100.73
2022-09-16T03:40:48.915Z,98104.72
2022-09-16T03:43:17.957Z,98106.02
2022-09-16T03:45:46.555Z,98108.70
2022-09-16T03:48:15.034Z,98110.30
2022-09-16T03:50:43.195Z,98115.42
2022-09-16T03:53:11.619Z,98112.96
2022-09-16T03:55:39.920Z,98105.64
2022-09-16T03:58:08.174Z,98111.73
2022-09-16T04:00:37.324Z,98118.05
2022-09-16T04:03:05.715Z,98122.09
2022-09-16T04:05:33.987Z,98117.19
2022-09-16T04:08:02.437Z,98114.48
2022-09-16T04:10:30.661Z,98117.33
2022-09-16T04:12:58.929Z,98113.70
2022-09-16T04:15:27.508Z,98108.52
2022-09-16T04:17:56.502Z,98107.57
2022-09-16T04:20:24.700Z,98106.33
2022-09-16T04:22:53.659Z,98112.23
2022-09-16T04:25:21.875Z,98114.31
2022-09-16T04:27:50.092Z,98110.92
2022-09-16T04:30:19.100Z,98112.88
2022-09-16T04:32:47.312Z,98118.52
2022-09-16T04:35:17.394Z,98118.49
2022-09-16T04:37:46.882Z,98118.59
2022-09-16T04:40:15.495Z,98121.19
2022-09-16T04:42:50.722Z,98126.46
2022-09-16T04:45:19.409Z,98136.36
2022-09-16T04:47:47.592Z,98140.78
2022-09-16T04:50:15.875Z,98144.69
2022-09-16T04:52:44.684Z,98148.04
2022-09-16T04:55:12.951Z,98147.80
2022-09-16T04:57:42.610Z,98149.23
2022-09-16T05:00:11.833Z,98152.38
2022-09-16T05:02:40.044Z,98152.81
2022-09-16T05:05:08.508Z,98150.94
2022-09-16T05:07:36.810Z,98155.05
2022-09-16T05:10:05.471Z,98158.93
2022-09-16T05:12:33.658Z,98162.98
2022-09-16T05:15:02.070Z,98160.65
2022-09-16T05:17:50.003Z,98162.25
2022-09-16T05:20:19.524Z,98166.30
2022-09-16T05:22:51.280Z,98165.24
2022-09-16T05:25:19.583Z,98164.96
2022-09-16T05:27:50.708Z,98166.96
2022-09-16T05:30:22.712Z,98168.59
2022-09-16T05:32:55.095Z,98170.80
2022-09-16T05:35:23.263Z,98167.63
2022-09-16T05:37:51.594Z,98166.83
2022-09-16T05:40:19.943Z,98170.74
2022-09-16T05:42:50.934Z,98170.37
2022-09-16T05:45:24.267Z,98165.00
2022-09-16T05:47:55.113Z,98162.96
2022-09-16T05:50:23.934Z,98165.80
2022-09-16T05:52:52.189Z,98165.05
2022-09-16T05:55:20.559Z,98162.78
2022-09-16T05:57:48.830Z,98162.14
2022-09-16T06:00:17.551Z,98157.82
2022-09-16T06:02:47.679Z,98150.73
2022-09-16T06:05:16.232Z,98145.91
2022-09-16T06:07:44.398Z,98149.26
2022-09-16T06:10:13.750Z,98150.98
2022-09-16T06:12:41.998Z,98151.13
2022-09-16T06:15:11.019Z,98151.88
2022-09-16T06:17:39.269Z,98152.28
2022-09-16T06:20:09.673Z,98148.77
2022-09-16T06:22:37.892Z,98148.30
2022-09-16T06:25:06.975Z,98144.98
2022-09-16T06:27:35.272Z,98145.17
2022-09-16T06:30:05.562Z,98143.83
2022-09-16T06:32:34.198Z,98142.79
2022-09-16T06:35:02.546Z,98141.96
2022-09-16T06:37:31.069Z,98144.70
2022-09-16T06:39:59.355Z,98142.31
2022-09-16T06:42:28.772Z,98137.85
2022-09-16T06:45:00.313Z,98141.27
2022-09-16T06:47:30.157Z,98139.29
2022-09-16T06:49:58.373Z,98137.28
2022-09-16T06:52:28.318Z,98141.16
2022-09-16T06:54:56.697Z,98140.73
2022-09-16T06:57:24.940Z,98144.45
2022-09-16T06:59:53.350Z,98144.15
2022-09-16T07:02:21.818Z,98147.14
2022-09-16T07:04:50.279Z,98151.63
2022-09-16T07:07:18.645Z,98154.55
2022-09-16T07:09:47.400Z,98147.30
2022-09-16T07:12:19.525Z,98145.23
2022-09-16T07:14:48.625Z,98145.61
2022-09-16T07:17:16.838Z,98144.33
2022-09-16T07:19:45.198Z,98143.52
2022-09-16T07:22:13.909Z,98151.48
2022-09-16T07:24:42.170Z,98155.52
2022-09-16T07:27:10.466Z,98158.92
2022-09-16T07:29:38.835Z,98164.91
2022-09-16T07:32:07.122Z,98164.34
2022-09-16T07:34:35.349Z,98158.69
2022-09-16T07:37:03.598Z,98160.27
2022-09-16T07:39:32.044Z,98152.19
2022-09-16T07:42:05.826Z,98153.00
2022-09-16T07:44:34.698Z,98148.95
2022-09-16T07:47:02.988Z,98150.77
2022-09-16T07:49:31.264Z,98154.63
2022-09-16T07:52:00.181Z,98150.50
2022-09-16T07:54:28.568Z,98153.98
2022-09-16T07:56:57.891Z,98155.37
2022-09-16T07:59:26.322Z,98154.26
2022-09-16T08:01:54.627Z,98151.32
2022-09-16T08:04:27.843Z,98156.55
2022-09-16T08:06:56.107Z,98157.82
2022-09-16T08:09:37.847Z,98157.73
2022-09-16T08:12:11.060Z,98162.23
2022-09-16T08:14:39.556Z,98154.69
2022-09-16T08:17:08.305Z,98147.58
2022-09-16T08:19:38.648Z,98138.98
2022-09-16T08:22:07.091Z,98136.51
2022-09-16T08:24:35.845Z,98137.11
2022-09-16T08:27:04.886Z,98138.17
2022-09-16T08:29:33.466Z,98143.90
2022-09-16T08:32:02.160Z,98139.22
2022-09-16T08:34:30.566Z,98141.88
2022-09-16T08:36:58.854Z,98141.27
2022-09-16T08:39:27.296Z,98146.20
2022-09-16T08:42:29.653Z,98149.02
2022-09-16T08:45:10.250Z,98141.33
2022-09-16T08:47:57.274Z,98139.44
2022-09-16T08:50:30.524Z,98135.39
2022-09-16T08:53:03.517Z,98132.53
2022-09-16T08:55:40.480Z,98126.98
2022-09-16T08:58:21.279Z,98125.55
2022-09-16T09:00:58.136Z,98127.42
2022-09-16T09:03:39.832Z,98131.02
2022-09-16T09:06:23.441Z,98132.37
2022-09-16T09:09:00.644Z,98132.10
2022-09-16T09:11:39.995Z,98128.10
2022-09-16T09:14:34.409Z,98128.17
2022-09-16T09:17:30.122Z,98129.34
2022-09-16T09:20:29.997Z,98130.71
2022-09-16T09:23:04.238Z,98130.75
2022-09-16T09:26:10.526Z,98131.80
2022-09-16T09:29:06.444Z,98135.61
2022-09-16T09:31:55.964Z,98139.84
2022-09-16T09:34:41.645Z,98134.85
2022-09-16T09:37:25.798Z,98142.50
2022-09-16T09:40:07.512Z,98142.17
2022-09-16T09:42:38.354Z,98150.30
2022-09-16T09:45:15.474Z,98156.44
2022-09-16T09:47:50.586Z,98155.65
2022-09-16T09:50:23.095Z,98157.44
2022-09-16T09:53:01.098Z,98153.21
2022-09-16T09:55:34.385Z,98156.42
2022-09-16T09:58:28.540Z,98156.22
2022-09-16T10:00:58.859Z,98157.22
2022-09-16T10:03:29.276Z,98155.33
2022-09-16T10:05:58.209Z,98160.27
2022-09-16T10:08:47.993Z,98164.09
2022-09-16T10:11:25.844Z,98166.58
2022-09-16T10:14:00.231Z,98162.88
2022-09-16T10:16:37.514Z,98153.40
2022-09-16T10:19:24.632Z,98153.05
2022-09-16T10:21:55.232Z,98159.04
2022-09-16T10:24:34.808Z,98166.86
2022-09-16T10:27:52.983Z,98163.80
2022-09-16T10:31:18.431Z,98163.55
2022-09-16T10:33:47.477Z,98154.80
2022-09-16T10:36:22.273Z,98154.50
2022-09-16T10:39:04.775Z,98154.17
2022-09-16T10:41:42.656Z,98149.85
2022-09-16T10:44:21.346Z,98148.27
2022-09-16T10:47:00.903Z,98146.52
2022-09-16T10:49:48.088Z,98142.50
2022-09-16T10:52:21.069Z,98141.45
2022-09-16T10:54:50.629Z,98142.20
2022-09-16T10:57:29.297Z,98149.08
2022-09-16T10:59:59.564Z,98147.40
2022-09-16T11:02:46.866Z,98147.59
2022-09-16T11:05:38.769Z,98149.42
2022-09-16T11:08:30.439Z,98148.52
2022-09-16T11:11:11.983Z,98142.17
2022-09-16T11:13:59.382Z,98140.64
2022-09-16T11:16:46.714Z,98138.86
2022-09-16T11:19:27.188Z,98131.92
2022-09-16T11:22:19.267Z,98130.70
2022-09-16T11:25:08.213Z,98122.55
2022-09-16T11:27:42.607Z,98117.20
2022-09-16T11:30:18.991Z,98117.82
2022-09-16T11:33:03.184Z,98112.41
2022-09-16T11:35:47.520Z,98114.12
2022-09-16T11:38:42.451Z,98112.13
2022-09-16T11:41:31.802Z,98111.09
2022-09-16T11:44:24.179Z,98108.64
2022-09-16T11:47:24.422Z,98107.05
2022-09-16T11:50:34.834Z,98108.96
2022-09-16T11:53:42.556Z,98102.21
2022-09-16T11:56:44.904Z,98101.59
2022-09-16T11:59:13.161Z,98096.56
2022-09-16T12:01:58.451Z,98096.08
2022-09-16T12:04:39.292Z,98097.19
2022-09-16T12:10:20.329Z,98094.27
2022-09-16T12:12:58.307Z,98096.52
2022-09-16T12:15:36.330Z,98099.80
2022-09-16T12:18:26.445Z,98099.13
2022-09-16T12:21:03.230Z,98101.48
2022-09-16T12:23:36.928Z,98093.63
2022-09-16T12:26:09.817Z,98088.61
2022-09-16T12:28:58.177Z,98075.40
2022-09-16T12:31:44.142Z,98072.94
2022-09-16T12:34:19.110Z,98073.75
2022-09-16T12:36:54.973Z,98066.30
2022-09-16T12:39:23.281Z,98066.34
2022-09-16T12:42:23.365Z,98059.94
2022-09-16T12:44:57.446Z,98062.00
2022-09-16T12:47:40.565Z,98060.64
2022-09-16T12:50:44.050Z,98054.25
2022-09-16T12:53:50.527Z,98051.90
2022-09-16T12:56:43.936Z,98047.66
2022-09-16T12:59:21.853Z,98046.59
2022-09-16T13:02:00.051Z,98053.02
2022-09-16T13:04:39.538Z,98050.55
2022-09-16T13:07:08.102Z,98049.19
2022-09-16T13:09:39.742Z,98048.38
2022-09-16T13:15:25.774Z,98060.59
2022-09-16T13:18:07.956Z,98062.78
2022-09-16T13:20:41.810Z,98076.52
2022-09-16T13:23:34.768Z,98078.70
2022-09-16T13:26:08.538Z,98084.36
2022-09-16T13:28:42.001Z,98086.14
2022-09-16T13:31:13.142Z,98090.19
2022-09-16T13:33:50.410Z,98095.41
2022-09-16T13:36:21.541Z,98098.77
2022-09-16T13:39:02.115Z,98103.21
2022-09-16T13:41:32.368Z,98107.88
2022-09-16T13:44:02.239Z,98115.38
2022-09-16T13:46:34.194Z,98112.64
2022-09-16T13:49:06.729Z,98109.48
2022-09-16T13:51:40.759Z,98110.16
2022-09-16T13:54:25.457Z,98113.27
2022-09-16T13:57:28.058Z,98107.42
2022-09-16T14:00:32.401Z,98107.05
2022-09-16T14:03:16.844Z,98108.67
2022-09-16T14:05:45.126Z,98105.20
2022-09-16T14:08:34.974Z,98102.66
2022-09-16T14:11:22.128Z,98102.63
2022-09-16T14:14:05.237Z,98100.07
2022-09-16T14:16:40.185Z,98095.99
2022-09-16T14:19:23.936Z,98094.38
2022-09-16T14:22:21.984Z,98089.10
2022-09-16T14:25:00.519Z,98088.96
2022-09-16T14:27:43.928Z,98084.48
2022-09-16T14:30:18.325Z,98087.02
2022-09-16T14:32:48.936Z,98086.26
2022-09-16T14:35:27.216Z,98089.15
2022-09-16T14:38:03.589Z,98084.27
2022-09-16T14:40:32.081Z,98080.56
2022-09-16T14:43:03.604Z,98077.61
2022-09-16T14:45:34.057Z,98077.92
2022-09-16T14:48:08.433Z,98075.41
2022-09-16T14:50:49.893Z,98077.96
2022-09-16T14:54:09.012Z,98077.05
2022-09-16T14:56:41.067Z,98077.20
2022-09-16T14:59:14.922Z,98068.90
2022-09-16T15:01:43.864Z,98073.56
2022-09-16T15:04:23.026Z,98070.73
2022-09-16T15:07:10.623Z,98069.11
2022-09-16T15:09:57.826Z,98061.85
2022-09-16T15:12:32.194Z,98062.05
2022-09-16T15:15:07.306Z,98061.91
2022-09-16T15:17:35.563Z,98064.50
2022-09-16T15:20:04.066Z,98063.67
2022-09-16T15:22:32.358Z,98061.63
2022-09-16T15:25:00.851Z,98056.66
2022-09-16T15:27:32.712Z,98055.02
2022-09-16T15:30:05.557Z,98053.02
2022-09-16T15:32:45.317Z,98054.48
2022-09-16T15:35:23.423Z,98051.40
2022-09-16T15:37:53.797Z,98049.88
2022-09-16T15:40:28.143Z,98048.34
2022-09-16T15:43:15.144Z,98047.78
2022-09-16T15:45:56.430Z,98048.53
2022-09-16T15:48:32.570Z,98049.74
2022-09-16T15:51:10.855Z,98046.05
2022-09-16T15:53:44.329Z,98044.20
2022-09-16T15:56:27.585Z,98043.02
2022-09-16T15:59:19.438Z,98041.95
2022-09-16T16:01:53.585Z,98036.62
2022-09-16T16:04:33.790Z,98033.30
2022-09-16T16:07:05.041Z,98032.14
2022-09-16T16:09:38.041Z,98031.92
2022-09-16T16:12:08.510Z,98038.02
2022-09-16T16:14:38.512Z,98035.53
2022-09-16T16:17:15.244Z,98034.81
2022-09-16T16:19:45.987Z,98041.94
2022-09-16T16:22:16.350Z,98044.50
2022-09-16T16:24:45.588Z,98045.04
2022-09-16T16:27:14.121Z,98043.40
2022-09-16T16:29:42.434Z,98042.98
2022-09-16T16:32:15.645Z,98039.77
2022-09-16T16:34:47.562Z,98042.41
2022-09-16T16:37:40.259Z,98043.91
2022-09-16T16:40:07.044Z,98047.70
2022-09-16T16:42:36.044Z,98054.63
2022-09-16T16:45:04.786Z,98051.81
2022-09-16T16:47:33.030Z,98052.45
2022-09-16T16:50:01.958Z,98054.55
2022-09-16T16:52:30.230Z,98057.27
2022-09-16T16:54:58.434Z,98055.62
2022-09-16T16:57:26.710Z,98053.31
2022-09-16T16:59:55.934Z,98049.87
2022-09-16T17:02:24.379Z,98050.45
2022-09-16T17:04:52.875Z,98052.31
2022-09-16T17:07:26.216Z,98052.01
2022-09-16T17:09:59.618Z,98051.61
2022-09-16T17:12:27.965Z,98053.62
2022-09-16T17:14:56.255Z,98055.61
2022-09-16T17:17:28.918Z,98057.66
2022-09-16T17:20:00.569Z,98058.33
2022-09-16T17:22:29.327Z,98058.10
2022-09-16T17:24:57.613Z,98058.50
2022-09-16T17:27:27.986Z,98064.66
2022-09-16T17:29:56.325Z,98061.73
2022-09-16T17:32:25.118Z,98059.96
2022-09-16T17:34:53.786Z,98057.49
2022-09-16T17:37:22.106Z,98057.96
2022-09-16T17:39:50.424Z,98054.58
2022-09-16T17:42:20.773Z,98052.87
2022-09-16T17:44:49.043Z,98057.95
2022-09-16T17:47:17.316Z,98059.48
2022-09-16T17:49:46.515Z,98060.30
2022-09-16T17:52:14.745Z,98062.02
2022-09-16T17:54:42.991Z,98062.40
2022-09-16T17:57:11.311Z,98064.48
2022-09-16T17:59:39.629Z,98064.35
2022-09-16T18:02:10.355Z,98065.41
2022-09-16T18:04:38.742Z,98060.89
2022-09-16T18:07:07.011Z,98063.85
2022-09-16T18:09:35.229Z,98065.29
2022-09-16T18:12:03.478Z,98065.34
2022-09-16T18:14:31.641Z,98068.08
2022-09-16T18:17:00.089Z,98063.83
2022-09-16T18:19:28.801Z,98070.71
2022-09-16T18:21:57.071Z,98071.81
2022-09-16T18:24:25.480Z,98069.20
2022-09-16T18:26:53.867Z,98071.83
2022-09-16T18:29:22.251Z,98069.20
2022-09-16T18:31:52.940Z,98071.11
2022-09-16T18:34:21.378Z,98072.62
2022-09-16T18:36:49.742Z,98076.98
2022-09-16T18:39:18.593Z,98070.09
2022-09-16T18:41:46.912Z,98071.20
2022-09-16T18:44:20.635Z,98072.94
2022-09-16T18:46:50.081Z,98076.87
2022-09-16T18:49:22.364Z,98081.52
2022-09-16T18:51:52.527Z,98082.12
2022-09-16T18:54:28.821Z,98077.38
2022-09-16T18:57:02.230Z,98078.45
2022-09-16T18:59:32.735Z,98078.34
2022-09-16T19:02:03.768Z,98074.37
2022-09-16T19:04:37.719Z,98074.75
2022-09-16T19:07:08.363Z,98072.13
2022-09-16T19:09:41.650Z,98069.02
2022-09-16T19:12:12.261Z,98068.04
2022-09-16T19:14:41.717Z,98070.36
2022-09-16T19:17:10.771Z,98067.95
2022-09-16T19:19:39.093Z,98071.36
2022-09-16T19:22:07.374Z,98069.80
2022-09-16T19:24:37.337Z,98067.69
2022-09-16T19:27:05.658Z,98064.10
2022-09-16T19:29:33.878Z,98074.05
2022-09-16T19:32:02.336Z,98069.39
2022-09-16T19:34:30.750Z,98072.85
2022-09-16T19:36:59.230Z,98072.58
2022-09-16T19:39:28.057Z,98076.34
2022-09-16T19:42:03.171Z,98077.52
2022-09-16T19:44:31.543Z,98078.19
2022-09-16T19:46:59.838Z,98073.53
2022-09-16T19:49:29.078Z,98072.67
2022-09-16T19:51:57.434Z,98076.09
2022-09-16T19:54:25.754Z,98075.73
2022-09-16T19:56:54.649Z,98074.40
2022-09-16T19:59:23.370Z,98068.33
2022-09-16T20:01:52.250Z,98070.48
2022-09-16T20:04:21.364Z,98070.34
2022-09-16T20:06:50.290Z,98072.63
2022-09-16T20:09:19.978Z,98071.40
2022-09-16T20:11:49.254Z,98069.95
2022-09-16T20:14:21.009Z,98067.57
2022-09-16T20:16:52.089Z,98074.11
2022-09-16T20:19:21.382Z,98069.55
2022-09-16T20:21:49.745Z,98068.63
2022-09-16T20:24:20.546Z,98076.12
2022-09-16T20:26:53.946Z,98081.63
2022-09-16T20:29:22.198Z,98081.53
2022-09-16T20:31:53.887Z,98083.13
2022-09-16T20:34:24.338Z,98090.53
2022-09-16T20:36:54.574Z,98092.82
2022-09-16T20:39:22.924Z,98093.02
2022-09-16T20:41:52.858Z,98086.84
2022-09-16T20:44:21.379Z,98091.74
2022-09-16T20:46:50.239Z,98085.52
2022-09-16T20:49:19.954Z,98091.82
2022-09-16T20:51:48.239Z,98088.48
2022-09-16T20:54:17.126Z,98085.27
2022-09-16T20:56:47.779Z,98089.27
2022-09-16T20:59:18.191Z,98090.85
2022-09-16T21:01:49.600Z,98093.46
2022-09-16T21:04:20.536Z,98096.45
2022-09-16T21:06:49.407Z,98095.92
2022-09-16T21:09:19.461Z,98093.38
2022-09-16T21:11:50.421Z,98089.73
2022-09-16T21:14:21.729Z,98086.00
2022-09-16T21:16:51.762Z,98086.67
2022-09-16T21:19:20.358Z,98090.85
2022-09-16T21:21:48.722Z,98096.67
2022-09-16T21:24:17.882Z,98097.64
2022-09-16T21:26:46.327Z,98096.89
2022-09-16T21:29:21.654Z,98094.54
2022-09-16T21:31:50.359Z,98096.29
2022-09-16T21:34:21.414Z,98099.58
2022-09-16T21:36:51.183Z,98094.27
2022-09-16T21:39:21.000Z,98089.97
2022-09-16T21:41:49.322Z,98090.04
2022-09-16T21:44:18.811Z,98091.98
2022-09-16T21:46:47.937Z,98096.77
2022-09-16T21:49:23.035Z,98101.65
2022-09-16T21:51:53.621Z,98104.10
2022-09-16T21:54:23.210Z,98108.31
2022-09-16T21:56:52.936Z,98107.42
2022-09-16T21:59:21.507Z,98110.97
2022-09-16T22:01:51.261Z,98111.45
2022-09-16T22:04:23.108Z,98110.17
2022-09-16T22:06:55.002Z,98109.35
2022-09-16T22:09:24.437Z,98109.34
2022-09-16T22:11:52.819Z,98107.45
2022-09-16T22:14:21.136Z,98105.80
2022-09-16T22:16:49.487Z,98103.83
2022-09-16T22:19:19.204Z,98105.69
2022-09-16T22:21:50.514Z,98103.90
2022-09-16T22:24:21.673Z,98108.78
2022-09-16T22:26:52.264Z,98114.84
2022-09-16T22:29:21.221Z,98117.25
2022-09-16T22:31:49.534Z,98121.90
2022-09-16T22:34:17.867Z,98126.99
2022-09-16T22:36:46.227Z,98129.34
2022-09-16T22:39:16.340Z,98132.16
2022-09-16T22:41:44.750Z,98130.78
2022-09-16T22:44:13.993Z,98130.84
2022-09-16T22:46:47.747Z,98129.29
2022-09-16T22:49:16.932Z,98130.14
2022-09-16T22:51:45.389Z,98130.89
2022-09-16T22:54:14.697Z,98131.86
2022-09-16T22:56:44.396Z,98132.30
2022-09-16T22:59:20.263Z,98130.30
2022-09-16T23:01:49.366Z,98123.77
2022-09-16T23:04:18.989Z,98120.68
2022-09-16T23:06:47.424Z,98120.65
2022-09-16T23:09:16.277Z,98122.04
2022-09-16T23:11:45.142Z,98120.73
2022-09-16T23:14:15.682Z,98119.17
2022-09-16T23:16:44.101Z,98128.49
2022-09-16T23:19:12.878Z,98131.23
2022-09-16T23:21:41.719Z,98131.08
2022-09-16T23:24:15.233Z,98131.17
2022-09-16T23:26:44.958Z,98123.83
2022-09-16T23:29:15.465Z,98126.45
2022-09-16T23:31:45.052Z,98126.52
2022-09-16T23:34:19.803Z,98127.39
2022-09-16T23:36:49.114Z,98124.52
2022-09-16T23:39:18.151Z,98130.25
2022-09-16T23:41:47.355Z,98122.72
2022-09-16T23:44:16.513Z,98122.20
2022-09-16T23:46:45.081Z,98124.29
2022-09-16T23:49:17.249Z,98124.09
2022-09-16T23:51:47.486Z,98125.95
2022-09-16T23:54:16.584Z,98127.48
2022-09-16T23:56:45.367Z,98128.91
2022-09-16T23:59:13.695Z,98123.23
